Terminal Aerodrome Forecast
Issued by NWS Billings, MT

Home | Current Version | Previous Version | Text Only | Print | Product List | Glossary On
Versions: 1 2 3 4 5 6 7 8 9 10 11 12 13 14 15 16 17 18 19 20 21 22
000
FTUS45 KBYZ 241326 AAA
TAFMLS
TAF AMD
KMLS 241326Z 2413/2512 00000KT P6SM OVC005
      TEMPO 2415/2417 BKN015
     FM241700 32008KT P6SM SCT020 BKN100
     FM250000 06012KT P6SM SCT020=

USA.gov is the U.S. government's official web portal to all federal, state and local government web resources and services.